Terminal Aerodrome Forecast
Issued by NWS Billings, MT

Home | Current Version | Previous Version | Graphics & Text | Print | Product List | Glossary On
Versions: 1 2 3 4 5 6 7 8 9 10 11 12 13 14
000
FTUS45 KBYZ 152340
TAFMLS
TAF
KMLS 152340Z 1600/1624 33017G24KT P6SM VCSH SCT090 OVC150
     FM161100 36013KT P6SM VCSH OVC060
     FM161400 36010KT P6SM VCSH OVC030=

USA.gov is the U.S. government's official web portal to all federal, state and local government web resources and services.